Time;durP1;ratioP1;P1;durP2;ratioP2;P2;SDS_P1;SDS_P2;PMS_P1;PMS_P2;Temp;Humidity;BMP_temperature;BMP_pressure;BME280_temperature;BME280_humidity;BME280_pressure;Samples;Min_cycle;Max_cycle;Signal;HPM_P1;HPM_P2
2023/01/30 00:00:26;;;;;;;26.10;12.07;;;;;;;;;;6183003;23;20047;-78
2023/01/30 00:02:52;;;;;;;17.73;9.63;;;;;;;;;;6211734;23;20047;-79
2023/01/30 00:05:18;;;;;;;15.30;8.75;;;;;;;;;;6197646;23;20016;-78
2023/01/30 00:07:46;;;;;;;22.48;11.95;;;;;;;;;;6221215;23;20074;-77
2023/01/30 00:10:12;;;;;;;21.20;11.48;;;;;;;;;;6234634;23;20016;-78
2023/01/30 00:12:38;;;;;;;20.65;10.18;;;;;;;;;;6208841;23;20016;-78
2023/01/30 00:15:05;;;;;;;20.20;10.43;;;;;;;;;;6251121;22;20012;-78
2023/01/30 00:17:31;;;;;;;19.98;10.45;;;;;;;;;;6189959;23;20016;-79
2023/01/30 00:19:57;;;;;;;18.30;7.88;;;;;;;;;;6239924;23;20019;-80
2023/01/30 00:22:23;;;;;;;23.58;9.23;;;;;;;;;;6236118;23;20020;-79
2023/01/30 00:24:50;;;;;;;23.42;9.55;;;;;;;;;;6158604;23;20046;-78
2023/01/30 00:27:16;;;;;;;22.02;10.75;;;;;;;;;;6208804;23;20012;-78
2023/01/30 00:29:42;;;;;;;18.73;8.45;;;;;;;;;;6184943;23;20111;-79
2023/01/30 00:32:08;;;;;;;20.75;9.48;;;;;;;;;;6157792;23;20493;-79
2023/01/30 00:34:34;;;;;;;18.55;8.27;;;;;;;;;;6183922;23;20022;-79
2023/01/30 00:37:00;;;;;;;26.90;8.95;;;;;;;;;;6208999;23;20024;-79
2023/01/30 00:39:26;;;;;;;23.00;10.02;;;;;;;;;;6158340;23;20123;-79
2023/01/30 00:47:38;;;;;;;;;;;;;;;;;;6198121;23;20085;-78
2023/01/30 00:50:04;;;;;;;26.17;9.32;;;;;;;;;;6205159;23;20318;-78
2023/01/30 00:52:30;;;;;;;24.73;7.82;;;;;;;;;;6205581;23;20024;-77
2023/01/30 00:54:57;;;;;;;23.23;9.63;;;;;;;;;;6202936;23;20020;-75
2023/01/30 00:57:23;;;;;;;24.42;8.80;;;;;;;;;;6204292;23;20016;-76
2023/01/30 00:59:49;;;;;;;27.80;11.20;;;;;;;;;;6178700;23;20020;-76
2023/01/30 01:02:15;;;;;;;22.75;10.02;;;;;;;;;;6177099;23;20024;-77
2023/01/30 01:04:44;;;;;;;23.85;10.43;;;;;;;;;;6204281;23;20024;-78
2023/01/30 01:07:10;;;;;;;22.10;10.07;;;;;;;;;;6205180;23;20012;-76
2023/01/30 01:09:37;;;;;;;22.02;10.00;;;;;;;;;;6203845;23;20023;-76
2023/01/30 01:12:03;;;;;;;26.23;9.82;;;;;;;;;;6179638;23;20031;-75
2023/01/30 01:14:29;;;;;;;24.65;9.18;;;;;;;;;;6202902;23;20020;-75
2023/01/30 01:16:55;;;;;;;22.67;9.30;;;;;;;;;;6204428;23;20023;-75
2023/01/30 01:19:21;;;;;;;22.63;9.02;;;;;;;;;;6205467;23;20381;-77
2023/01/30 01:21:47;;;;;;;18.45;8.38;;;;;;;;;;6182139;23;20024;-77
2023/01/30 01:24:14;;;;;;;17.45;8.20;;;;;;;;;;6181743;23;20012;-76
2023/01/30 01:26:40;;;;;;;17.17;7.43;;;;;;;;;;6205789;23;20030;-77
2023/01/30 01:29:07;;;;;;;21.80;8.38;;;;;;;;;;6179417;23;20020;-76
2023/01/30 01:31:33;;;;;;;24.92;9.77;;;;;;;;;;6205583;23;20058;-77
2023/01/30 01:33:59;;;;;;;16.70;8.57;;;;;;;;;;6179792;23;20324;-78
2023/01/30 01:36:25;;;;;;;18.02;7.97;;;;;;;;;;6182242;23;20502;-78
2023/01/30 01:38:51;;;;;;;16.38;8.88;;;;;;;;;;6207107;23;20023;-78
2023/01/30 01:41:17;;;;;;;21.38;8.85;;;;;;;;;;6235580;23;20409;-78
2023/01/30 01:44:06;;;;;;;16.92;8.57;;;;;;;;;;6204454;23;20556;-76
2023/01/30 01:46:35;;;;;;;16.77;9.10;;;;;;;;;;6204190;23;20020;-76
2023/01/30 01:49:05;;;;;;;25.50;9.35;;;;;;;;;;6180165;23;20012;-79
2023/01/30 01:51:45;;;;;;;16.40;8.02;;;;;;;;;;6208561;23;20020;-78
2023/01/30 01:54:13;;;;;;;21.23;9.15;;;;;;;;;;6239322;23;20035;-78
2023/01/30 01:56:41;;;;;;;20.23;9.63;;;;;;;;;;6199829;23;20047;-79
2023/01/30 01:59:16;;;;;;;20.52;9.18;;;;;;;;;;6224890;23;20027;-78
2023/01/30 02:01:42;;;;;;;20.27;8.75;;;;;;;;;;6230945;23;20087;-78
2023/01/30 02:04:10;;;;;;;18.98;10.05;;;;;;;;;;6205488;23;20012;-78
2023/01/30 02:06:37;;;;;;;21.33;9.85;;;;;;;;;;6193167;23;20023;-76
2023/01/30 02:09:04;;;;;;;26.42;9.77;;;;;;;;;;6232948;23;20015;-77
2023/01/30 02:11:41;;;;;;;30.40;10.60;;;;;;;;;;6181275;23;20090;-77
2023/01/30 02:14:07;;;;;;;28.50;8.73;;;;;;;;;;6178916;22;20016;-77
2023/01/30 02:16:35;;;;;;;46.53;10.63;;;;;;;;;;6181491;23;20085;-77
2023/01/30 02:19:01;;;;;;;34.10;9.65;;;;;;;;;;6205193;23;20019;-77
2023/01/30 02:21:30;;;;;;;31.17;9.82;;;;;;;;;;6180888;23;20027;-78
2023/01/30 02:24:02;;;;;;;31.88;8.95;;;;;;;;;;6180572;23;20016;-77
2023/01/30 02:26:45;;;;;;;33.70;10.25;;;;;;;;;;6232978;23;20110;-76
2023/01/30 02:29:11;;;;;;;50.42;11.32;;;;;;;;;;6206661;23;20015;-77
2023/01/30 02:31:48;;;;;;;39.33;9.95;;;;;;;;;;6180675;23;20016;-77
2023/01/30 02:34:33;;;;;;;53.08;10.35;;;;;;;;;;6205371;23;20043;-77
2023/01/30 02:37:20;;;;;;;36.67;10.25;;;;;;;;;;6205205;23;20024;-77
2023/01/30 02:40:05;;;;;;;33.47;9.55;;;;;;;;;;6188477;23;20012;-77
2023/01/30 02:42:31;;;;;;;36.85;9.50;;;;;;;;;;6206669;23;20458;-77
2023/01/30 02:44:57;;;;;;;41.35;9.00;;;;;;;;;;6204449;23;20221;-76
2023/01/30 02:47:33;;;;;;;28.52;7.05;;;;;;;;;;6205566;23;20023;-77
2023/01/30 02:50:06;;;;;;;43.60;9.77;;;;;;;;;;6179723;23;20020;-77
2023/01/30 02:52:33;;;;;;;34.28;8.50;;;;;;;;;;6178831;23;20070;-77
2023/01/30 02:55:01;;;;;;;43.05;10.02;;;;;;;;;;6205314;23;20020;-78
2023/01/30 02:57:27;;;;;;;37.15;8.75;;;;;;;;;;6204294;23;20016;-78
2023/01/30 02:59:56;;;;;;;31.20;7.80;;;;;;;;;;6203386;23;20095;-78
2023/01/30 03:02:40;;;;;;;32.90;8.32;;;;;;;;;;6202800;23;20409;-77
2023/01/30 03:05:06;;;;;;;;;;;;;;;;;;6180378;23;20016;-77
2023/01/30 03:07:33;;;;;;;25.58;5.53;;;;;;;;;;6179708;23;19923;-78
2023/01/30 03:10:09;;;;;;;42.60;8.18;;;;;;;;;;6178531;23;20020;-78
2023/01/30 03:12:47;;;;;;;44.22;8.40;;;;;;;;;;6205434;23;20020;-75
2023/01/30 03:15:17;;;;;;;43.00;8.38;;;;;;;;;;6204259;23;20020;-77
2023/01/30 03:17:45;;;;;;;29.02;6.28;;;;;;;;;;6204242;23;20020;-78
2023/01/30 03:20:11;;;;;;;28.83;6.40;;;;;;;;;;6179445;23;20318;-77
2023/01/30 03:22:37;;;;;;;37.85;6.53;;;;;;;;;;6179262;23;20095;-75
2023/01/30 03:25:03;;;;;;;17.88;3.40;;;;;;;;;;6180181;23;20078;-77
2023/01/30 03:27:29;;;;;;;22.83;4.63;;;;;;;;;;6179566;23;20020;-77
2023/01/30 03:29:56;;;;;;;23.00;4.38;;;;;;;;;;6231628;23;20012;-77
2023/01/30 03:32:22;;;;;;;23.05;3.67;;;;;;;;;;6206446;23;20095;-77
2023/01/30 03:34:48;;;;;;;23.52;4.32;;;;;;;;;;6236670;23;20074;-77
2023/01/30 03:37:14;;;;;;;20.73;3.45;;;;;;;;;;6211963;23;20020;-77
2023/01/30 03:39:40;;;;;;;32.70;5.25;;;;;;;;;;6200089;23;20027;-76
2023/01/30 03:42:06;;;;;;;35.55;6.55;;;;;;;;;;6202587;23;20035;-75
2023/01/30 03:44:32;;;;;;;46.65;6.55;;;;;;;;;;6227787;23;20046;-77
2023/01/30 03:46:59;;;;;;;43.75;6.25;;;;;;;;;;6253681;23;20036;-78
2023/01/30 03:49:25;;;;;;;40.92;6.50;;;;;;;;;;6204158;23;20000;-78
2023/01/30 03:51:51;;;;;;;36.60;6.15;;;;;;;;;;6232824;23;20019;-77
2023/01/30 03:54:17;;;;;;;42.25;6.85;;;;;;;;;;6181575;23;20020;-77
2023/01/30 03:56:43;;;;;;;35.08;6.25;;;;;;;;;;6183099;23;20019;-76
2023/01/30 03:59:09;;;;;;;47.15;8.05;;;;;;;;;;6206115;23;20027;-76
2023/01/30 04:01:35;;;;;;;41.00;5.43;;;;;;;;;;6207478;23;20016;-77
2023/01/30 04:04:01;;;;;;;25.85;4.78;;;;;;;;;;6157316;23;20011;-78
2023/01/30 04:06:27;;;;;;;40.65;6.38;;;;;;;;;;6182483;23;20016;-78
2023/01/30 04:08:53;;;;;;;37.05;5.78;;;;;;;;;;6233817;23;20012;-77
2023/01/30 04:11:20;;;;;;;38.33;5.32;;;;;;;;;;6179724;23;20050;-76
2023/01/30 04:13:46;;;;;;;33.72;5.50;;;;;;;;;;6203617;23;20027;-77
2023/01/30 04:16:23;;;;;;;37.85;6.60;;;;;;;;;;6181390;23;20016;-76
2023/01/30 04:18:49;;;;;;;43.30;6.35;;;;;;;;;;6179058;23;20027;-78
2023/01/30 04:21:15;;;;;;;42.65;5.65;;;;;;;;;;6181411;23;20091;-77
2023/01/30 04:23:42;;;;;;;46.60;6.75;;;;;;;;;;6206326;23;20020;-77
2023/01/30 04:26:14;;;;;;;53.65;7.72;;;;;;;;;;6233506;23;20055;-77
2023/01/30 04:28:40;;;;;;;36.55;5.43;;;;;;;;;;6205653;23;20117;-77
2023/01/30 04:31:06;;;;;;;36.10;5.07;;;;;;;;;;6232704;23;20020;-78
2023/01/30 04:33:35;;;;;;;51.65;6.82;;;;;;;;;;6204796;23;20091;-78
2023/01/30 04:36:02;;;;;;;40.67;5.38;;;;;;;;;;6179800;23;20409;-77
2023/01/30 04:38:29;;;;;;;39.65;5.85;;;;;;;;;;6199876;23;20537;-76
2023/01/30 04:40:56;;;;;;;35.17;5.28;;;;;;;;;;6200616;23;20127;-77
2023/01/30 04:43:23;;;;;;;35.65;5.65;;;;;;;;;;6174867;23;20017;-78
2023/01/30 04:45:49;;;;;;;29.10;4.47;;;;;;;;;;6201105;23;20104;-78
2023/01/30 04:48:15;;;;;;;39.40;6.03;;;;;;;;;;6176116;23;20013;-77
2023/01/30 04:50:42;;;;;;;36.72;4.65;;;;;;;;;;6199152;23;20016;-77
2023/01/30 04:53:09;;;;;;;27.40;3.72;;;;;;;;;;6200320;23;20027;-76
2023/01/30 04:55:35;;;;;;;34.55;5.32;;;;;;;;;;6198196;23;20100;-77
2023/01/30 04:58:01;;;;;;;41.53;6.68;;;;;;;;;;6199954;23;20110;-77
2023/01/30 05:00:27;;;;;;;41.08;6.03;;;;;;;;;;6174136;23;20017;-76
2023/01/30 05:02:54;;;;;;;32.42;4.50;;;;;;;;;;6172258;23;20155;-77
2023/01/30 05:05:21;;;;;;;36.28;6.75;;;;;;;;;;6197890;23;20016;-77
2023/01/30 05:07:48;;;;;;;30.52;5.30;;;;;;;;;;6173745;23;20017;-77
2023/01/30 05:10:14;;;;;;;30.70;5.10;;;;;;;;;;6201596;23;20028;-77
2023/01/30 05:12:40;;;;;;;41.72;5.30;;;;;;;;;;6201082;23;20024;-77
2023/01/30 05:15:06;;;;;;;34.47;5.10;;;;;;;;;;6152235;23;20693;-77
2023/01/30 05:17:33;;;;;;;27.02;4.68;;;;;;;;;;6177906;23;20027;-77
2023/01/30 05:19:59;;;;;;;29.80;4.85;;;;;;;;;;6204222;23;20016;-77
2023/01/30 05:22:25;;;;;;;35.63;5.65;;;;;;;;;;6206820;23;20052;-76
2023/01/30 05:24:51;;;;;;;39.45;5.28;;;;;;;;;;6216764;23;20063;-76
2023/01/30 05:27:17;;;;;;;32.58;4.97;;;;;;;;;;6190946;23;20055;-76
2023/01/30 05:29:43;;;;;;;37.53;5.53;;;;;;;;;;6216602;23;20023;-77
2023/01/30 05:32:14;;;;;;;30.75;4.85;;;;;;;;;;6217165;23;20386;-77
2023/01/30 05:34:40;;;;;;;34.28;4.28;;;;;;;;;;6219392;23;20051;-77
2023/01/30 05:37:06;;;;;;;31.50;5.45;;;;;;;;;;6174303;23;20028;-77
2023/01/30 05:39:32;;;;;;;36.20;4.40;;;;;;;;;;6198797;23;20024;-77
2023/01/30 05:41:58;;;;;;;29.13;5.57;;;;;;;;;;6174234;23;20202;-78
2023/01/30 05:44:24;;;;;;;39.05;5.80;;;;;;;;;;6179245;23;20016;-78
2023/01/30 05:46:50;;;;;;;29.08;4.85;;;;;;;;;;6204508;23;20048;-78
2023/01/30 05:49:16;;;;;;;24.67;3.80;;;;;;;;;;6178280;23;20020;-78
2023/01/30 05:51:42;;;;;;;34.42;4.70;;;;;;;;;;6203637;23;20019;-77
2023/01/30 05:54:08;;;;;;;28.63;3.90;;;;;;;;;;6202373;23;20031;-78
2023/01/30 05:56:35;;;;;;;35.70;4.97;;;;;;;;;;6152746;23;20027;-77
2023/01/30 05:59:01;;;;;;;40.78;6.38;;;;;;;;;;6229626;23;20027;-77
2023/01/30 06:01:28;;;;;;;42.22;6.55;;;;;;;;;;6203350;23;20087;-77
2023/01/30 06:03:55;;;;;;;38.38;6.20;;;;;;;;;;6202336;23;20016;-77
2023/01/30 06:06:21;;;;;;;34.13;4.35;;;;;;;;;;6200046;23;20035;-77
2023/01/30 06:08:47;;;;;;;41.13;6.30;;;;;;;;;;6199605;23;20166;-78
2023/01/30 06:11:15;;;;;;;31.00;5.53;;;;;;;;;;6200717;23;20020;-77
2023/01/30 06:13:42;;;;;;;39.97;6.15;;;;;;;;;;6204476;23;20101;-78
2023/01/30 06:16:10;;;;;;;34.83;4.80;;;;;;;;;;6177780;23;20027;-77
2023/01/30 06:18:37;;;;;;;36.38;5.32;;;;;;;;;;6178769;23;20605;-78
2023/01/30 06:21:03;;;;;;;30.98;5.30;;;;;;;;;;6233623;23;20126;-77
2023/01/30 06:23:29;;;;;;;40.92;5.22;;;;;;;;;;6206051;23;20016;-77
2023/01/30 06:25:55;;;;;;;31.80;4.57;;;;;;;;;;6181382;23;20016;-77
2023/01/30 06:28:23;;;;;;;44.85;5.53;;;;;;;;;;6181114;23;20050;-76
2023/01/30 06:30:49;;;;;;;39.78;5.57;;;;;;;;;;6206098;23;20016;-77
2023/01/30 06:33:15;;;;;;;38.08;6.43;;;;;;;;;;6205506;23;20070;-77
2023/01/30 06:35:42;;;;;;;26.85;5.38;;;;;;;;;;6205633;23;20018;-79
2023/01/30 06:38:13;;;;;;;35.55;6.63;;;;;;;;;;6171762;23;20804;-76
2023/01/30 06:40:39;;;;;;;35.33;6.40;;;;;;;;;;6198494;23;20451;-76
2023/01/30 06:43:05;;;;;;;32.22;4.95;;;;;;;;;;6173701;23;20024;-77
2023/01/30 06:45:31;;;;;;;29.67;4.90;;;;;;;;;;6199122;23;20021;-77
2023/01/30 06:47:57;;;;;;;33.88;5.47;;;;;;;;;;6206055;23;20066;-85
2023/01/30 06:50:25;;;;;;;41.97;5.13;;;;;;;;;;6216438;23;20013;-85
2023/01/30 06:52:52;;;;;;;38.65;5.95;;;;;;;;;;6196432;23;20016;-84
2023/01/30 06:55:19;;;;;;;25.33;4.45;;;;;;;;;;6173001;23;20019;-86
2023/01/30 06:57:45;;;;;;;34.20;5.65;;;;;;;;;;6224504;23;20030;-85
2023/01/30 07:00:16;;;;;;;30.15;4.80;;;;;;;;;;6196831;23;20072;-84
2023/01/30 07:02:42;;;;;;;31.65;5.22;;;;;;;;;;6218292;23;20100;-85
2023/01/30 07:05:09;;;;;;;35.92;4.53;;;;;;;;;;6221091;23;20013;-85
2023/01/30 07:07:35;;;;;;;38.72;7.13;;;;;;;;;;6183220;23;20012;-85
2023/01/30 07:10:02;;;;;;;39.03;5.28;;;;;;;;;;6206868;23;20007;-86
2023/01/30 07:12:28;;;;;;;37.20;5.82;;;;;;;;;;6205519;23;20011;-85
2023/01/30 07:14:54;;;;;;;44.72;5.57;;;;;;;;;;6232105;23;20016;-85
2023/01/30 07:17:21;;;;;;;41.35;5.95;;;;;;;;;;6217121;23;20023;-85
2023/01/30 07:19:47;;;;;;;43.78;7.13;;;;;;;;;;6215851;23;20019;-85
2023/01/30 07:22:13;;;;;;;32.72;5.78;;;;;;;;;;6191945;23;20044;-85
2023/01/30 07:24:41;;;;;;;35.78;5.80;;;;;;;;;;6220197;23;20019;-85
2023/01/30 07:27:08;;;;;;;47.38;6.60;;;;;;;;;;6221523;23;20023;-88
2023/01/30 07:29:35;;;;;;;35.35;5.88;;;;;;;;;;6222074;23;20031;-84
2023/01/30 07:32:01;;;;;;;38.00;6.55;;;;;;;;;;6194264;23;20068;-85
2023/01/30 07:34:27;;;;;;;31.92;5.00;;;;;;;;;;6222523;23;20517;-85
2023/01/30 07:36:53;;;;;;;41.47;6.30;;;;;;;;;;6215455;23;20028;-70
2023/01/30 07:39:19;;;;;;;36.33;4.90;;;;;;;;;;6197825;23;20024;-71
2023/01/30 07:41:46;;;;;;;38.83;7.35;;;;;;;;;;6197736;23;20083;-71
2023/01/30 07:44:12;;;;;;;37.55;5.60;;;;;;;;;;6200078;23;20084;-71
2023/01/30 07:46:38;;;;;;;40.58;5.93;;;;;;;;;;6198211;23;20017;-71
2023/01/30 07:49:05;;;;;;;42.75;6.00;;;;;;;;;;6172735;23;20047;-71
2023/01/30 07:51:31;;;;;;;42.15;6.18;;;;;;;;;;6199161;23;20091;-70
2023/01/30 07:53:58;;;;;;;33.20;5.32;;;;;;;;;;6199622;23;20502;-71
2023/01/30 07:56:24;;;;;;;32.75;5.75;;;;;;;;;;6200193;23;20816;-71
2023/01/30 07:58:50;;;;;;;39.92;5.85;;;;;;;;;;6200088;23;20501;-71
2023/01/30 08:01:17;;;;;;;34.00;7.13;;;;;;;;;;6200974;23;20082;-71
2023/01/30 08:03:45;;;;;;;37.60;6.30;;;;;;;;;;6199425;23;20034;-70
2023/01/30 08:06:12;;;;;;;41.95;6.70;;;;;;;;;;6198099;23;20016;-71
2023/01/30 08:08:39;;;;;;;44.08;6.25;;;;;;;;;;6201458;23;20016;-71
2023/01/30 08:11:05;;;;;;;36.92;5.13;;;;;;;;;;6198813;23;20755;-71
2023/01/30 08:13:31;;;;;;;31.95;6.00;;;;;;;;;;6199624;23;20120;-71
2023/01/30 08:16:01;;;;;;;31.08;5.95;;;;;;;;;;6174084;23;20498;-71
2023/01/30 08:18:31;;;;;;;41.05;6.53;;;;;;;;;;6201664;23;20009;-72
2023/01/30 08:21:00;;;;;;;32.17;5.18;;;;;;;;;;6198622;23;20443;-70
2023/01/30 08:23:27;;;;;;;40.88;6.70;;;;;;;;;;6198482;23;20044;-71
2023/01/30 08:25:54;;;;;;;40.58;5.38;;;;;;;;;;6199308;23;20106;-71
2023/01/30 08:28:20;;;;;;;28.15;4.97;;;;;;;;;;6201287;23;20024;-71
2023/01/30 08:30:47;;;;;;;32.08;4.95;;;;;;;;;;6200147;23;20017;-72
2023/01/30 08:33:14;;;;;;;35.33;5.13;;;;;;;;;;6174778;23;20020;-71
2023/01/30 08:35:40;;;;;;;33.45;6.53;;;;;;;;;;6201826;23;20020;-71
2023/01/30 08:38:07;;;;;;;30.63;5.47;;;;;;;;;;6198888;23;20837;-72
2023/01/30 08:40:34;;;;;;;34.13;5.65;;;;;;;;;;6203332;23;20024;-71
2023/01/30 08:43:00;;;;;;;34.20;6.32;;;;;;;;;;6212352;23;20025;-71
2023/01/30 08:45:26;;;;;;;38.03;5.93;;;;;;;;;;6187347;23;20017;-71
2023/01/30 08:47:52;;;;;;;38.03;6.00;;;;;;;;;;6222874;23;20090;-71
2023/01/30 08:50:18;;;;;;;35.65;5.82;;;;;;;;;;6227198;23;20013;-72
2023/01/30 08:52:44;;;;;;;33.65;5.70;;;;;;;;;;6209433;23;20027;-71
2023/01/30 08:55:10;;;;;;;32.50;4.45;;;;;;;;;;6199045;23;20107;-71
2023/01/30 08:57:37;;;;;;;31.27;4.88;;;;;;;;;;6199018;23;20568;-72
2023/01/30 09:00:03;;;;;;;33.70;6.32;;;;;;;;;;6200175;23;20733;-70
2023/01/30 09:02:29;;;;;;;35.08;5.40;;;;;;;;;;6200293;23;20024;-71
2023/01/30 09:04:55;;;;;;;35.15;5.43;;;;;;;;;;6197696;23;20048;-71
2023/01/30 09:07:21;;;;;;;24.60;4.78;;;;;;;;;;6200959;23;20023;-71
2023/01/30 09:09:47;;;;;;;34.63;4.88;;;;;;;;;;6198611;23;20016;-71
2023/01/30 09:12:14;;;;;;;30.33;6.32;;;;;;;;;;6200399;23;20478;-71
2023/01/30 09:14:40;;;;;;;27.63;5.35;;;;;;;;;;6197173;23;20028;-71
2023/01/30 09:17:06;;;;;;;43.75;5.95;;;;;;;;;;6174121;23;20031;-71
2023/01/30 09:19:34;;;;;;;38.53;5.20;;;;;;;;;;6173681;23;20522;-70
2023/01/30 09:22:00;;;;;;;33.67;6.00;;;;;;;;;;6198501;23;20632;-70
2023/01/30 09:24:26;;;;;;;42.38;6.80;;;;;;;;;;6197646;23;20072;-71
2023/01/30 09:26:57;;;;;;;30.58;5.43;;;;;;;;;;6197513;23;20018;-71
2023/01/30 09:29:24;;;;;;;29.27;4.95;;;;;;;;;;6196855;23;20052;-71
2023/01/30 09:31:50;;;;;;;39.67;5.22;;;;;;;;;;6173175;23;20018;-71
2023/01/30 09:34:16;;;;;;;29.25;5.90;;;;;;;;;;6199686;23;20048;-70
2023/01/30 09:36:42;;;;;;;35.92;5.93;;;;;;;;;;6195754;23;20439;-71
2023/01/30 09:39:08;;;;;;;33.85;5.78;;;;;;;;;;6220125;23;20604;-72
2023/01/30 09:41:40;;;;;;;27.17;4.38;;;;;;;;;;6201484;23;20020;-72
2023/01/30 09:44:06;;;;;;;25.65;5.38;;;;;;;;;;6203545;23;20023;-71
2023/01/30 09:46:35;;;;;;;44.33;5.78;;;;;;;;;;6203803;23;20035;-71
2023/01/30 09:49:24;;;;;;;43.40;6.60;;;;;;;;;;6203762;23;20019;-71
2023/01/30 09:51:55;;;;;;;41.70;6.68;;;;;;;;;;6201329;23;20030;-72
2023/01/30 09:54:23;;;;;;;28.73;5.25;;;;;;;;;;6201465;23;20374;-71
2023/01/30 09:56:58;;;;;;;33.13;5.03;;;;;;;;;;6202804;23;20032;-71
2023/01/30 09:59:27;;;;;;;38.85;6.68;;;;;;;;;;6202356;23;20525;-71
2023/01/30 10:02:09;;;;;;;35.33;5.65;;;;;;;;;;6201370;23;20028;-72
2023/01/30 10:04:44;;;;;;;32.83;5.43;;;;;;;;;;6200819;23;20027;-72
2023/01/30 10:07:14;;;;;;;45.53;6.85;;;;;;;;;;6201644;23;20019;-71
2023/01/30 10:09:43;;;;;;;34.55;7.00;;;;;;;;;;6229533;23;20035;-71
2023/01/30 10:12:28;;;;;;;36.45;5.85;;;;;;;;;;6200441;23;20043;-71
2023/01/30 10:15:07;;;;;;;30.65;5.68;;;;;;;;;;6227491;22;20086;-71
2023/01/30 10:17:37;;;;;;;35.83;5.53;;;;;;;;;;6202812;23;20098;-71
2023/01/30 10:20:06;;;;;;;34.38;5.80;;;;;;;;;;6202609;23;20046;-71
2023/01/30 10:22:41;;;;;;;33.20;5.90;;;;;;;;;;6231200;23;20020;-71
2023/01/30 10:25:16;;;;;;;37.47;6.68;;;;;;;;;;6191463;23;20019;-71
2023/01/30 10:27:56;;;;;;;47.00;6.75;;;;;;;;;;6225137;23;20068;-83
2023/01/30 10:30:22;;;;;;;38.00;6.22;;;;;;;;;;6224664;23;20064;-79
2023/01/30 10:33:01;;;;;;;37.95;7.07;;;;;;;;;;6225131;23;20068;-80
2023/01/30 10:35:30;;;;;;;26.02;5.05;;;;;;;;;;6218051;23;20024;-80
2023/01/30 10:38:03;;;;;;;21.55;4.05;;;;;;;;;;6198145;23;20025;-81
2023/01/30 10:40:32;;;;;;;24.98;4.38;;;;;;;;;;6173181;23;20335;-80
2023/01/30 10:43:17;;;;;;;34.63;5.07;;;;;;;;;;6197308;23;20017;-80
2023/01/30 10:45:47;;;;;;;31.35;5.40;;;;;;;;;;6197640;23;20130;-80
2023/01/30 10:48:26;;;;;;;22.25;4.80;;;;;;;;;;6197186;23;20025;-81
2023/01/30 10:50:55;;;;;;;29.83;5.80;;;;;;;;;;6197176;23;20049;-80
2023/01/30 10:53:43;;;;;;;27.02;4.30;;;;;;;;;;6197610;23;20020;-81
2023/01/30 10:56:15;;;;;;;20.80;4.30;;;;;;;;;;6196328;23;20024;-81
2023/01/30 10:58:48;;;;;;;25.13;4.68;;;;;;;;;;6194269;23;20028;-80
2023/01/30 11:01:17;;;;;;;23.60;4.78;;;;;;;;;;6194284;23;20028;-80
2023/01/30 11:03:49;;;;;;;21.00;4.10;;;;;;;;;;6194286;23;20042;-82
2023/01/30 11:06:25;;;;;;;23.02;3.47;;;;;;;;;;6194025;23;20055;-82
2023/01/30 11:08:52;;;;;;;20.88;3.90;;;;;;;;;;6193689;23;20171;-77
2023/01/30 11:11:30;;;;;;;26.85;4.18;;;;;;;;;;6195905;23;20021;-82
2023/01/30 11:14:02;;;;;;;22.02;3.33;;;;;;;;;;6197794;23;20016;-82
2023/01/30 11:16:29;;;;;;;34.15;5.57;;;;;;;;;;6170074;23;20020;-80
2023/01/30 11:18:57;;;;;;;25.83;5.05;;;;;;;;;;6169726;23;20027;-78
2023/01/30 11:21:29;;;;;;;25.83;5.18;;;;;;;;;;6170086;23;20106;-78
2023/01/30 11:23:55;;;;;;;36.38;5.43;;;;;;;;;;6195216;23;20023;-76
2023/01/30 11:26:29;;;;;;;39.80;5.80;;;;;;;;;;6198651;23;20517;-76
2023/01/30 11:28:56;;;;;;;30.88;5.07;;;;;;;;;;6198477;23;20139;-78
2023/01/30 11:31:25;;;;;;;39.08;5.22;;;;;;;;;;6172329;23;20081;-77
2023/01/30 11:34:00;;;;;;;29.95;5.47;;;;;;;;;;6201057;23;20103;-77
2023/01/30 11:36:28;;;;;;;24.88;5.85;;;;;;;;;;6200821;23;20033;-77
2023/01/30 11:38:59;;;;;;;24.30;4.97;;;;;;;;;;6197257;23;20087;-78
2023/01/30 11:41:27;;;;;;;25.85;4.68;;;;;;;;;;6194981;23;20020;-78
2023/01/30 11:43:59;;;;;;;25.63;4.40;;;;;;;;;;6198639;23;20020;-78
2023/01/30 11:46:28;;;;;;;26.35;4.45;;;;;;;;;;6199858;23;20024;-79
2023/01/30 11:49:02;;;;;;;35.13;5.53;;;;;;;;;;6197761;23;20012;-78
2023/01/30 11:51:29;;;;;;;26.13;4.63;;;;;;;;;;6197370;23;20021;-77
2023/01/30 11:54:03;;;;;;;27.88;5.30;;;;;;;;;;6197846;23;20100;-77
2023/01/30 11:56:34;;;;;;;49.78;6.05;;;;;;;;;;6198848;23;20012;-77
2023/01/30 11:59:19;;;;;;;25.60;5.00;;;;;;;;;;6201568;23;20088;-78
2023/01/30 12:01:45;;;;;;;44.38;6.45;;;;;;;;;;6212799;23;20075;-76
2023/01/30 12:04:12;;;;;;;31.10;6.45;;;;;;;;;;6211589;23;20044;-76
2023/01/30 12:06:40;;;;;;;43.30;7.05;;;;;;;;;;6219521;23;20017;-71
2023/01/30 12:09:06;;;;;;;35.22;5.78;;;;;;;;;;6223224;23;20069;-71
2023/01/30 12:11:43;;;;;;;32.97;5.13;;;;;;;;;;6214210;23;20841;-71
2023/01/30 12:14:16;;;;;;;28.98;5.03;;;;;;;;;;6197849;23;20024;-70
2023/01/30 12:16:42;;;;;;;32.47;4.88;;;;;;;;;;6199338;23;20063;-71
2023/01/30 12:19:20;;;;;;;22.90;4.82;;;;;;;;;;6200997;23;20031;-75
2023/01/30 12:21:51;;;;;;;29.00;4.70;;;;;;;;;;6212405;23;20090;-77
2023/01/30 12:24:22;;;;;;;25.20;4.25;;;;;;;;;;6213348;23;20012;-77
2023/01/30 12:27:23;;;;;;;29.80;5.10;;;;;;;;;;6217905;23;20327;-77
2023/01/30 12:30:22;;;;;;;32.45;5.05;;;;;;;;;;6089003;23;20014;-71
2023/01/30 12:32:48;;;;;;;39.45;6.57;;;;;;;;;;6167646;23;20019;-70
2023/01/30 12:35:17;;;;;;;40.42;5.25;;;;;;;;;;6200413;23;20272;-70
2023/01/30 12:37:46;;;;;;;31.38;4.85;;;;;;;;;;6204747;23;20020;-71
2023/01/30 12:40:31;;;;;;;25.83;5.22;;;;;;;;;;6231035;23;20020;-70
2023/01/30 12:43:16;;;;;;;32.65;5.90;;;;;;;;;;6231912;23;20016;-71
2023/01/30 12:46:00;;;;;;;37.72;6.10;;;;;;;;;;6231956;23;20035;-71
2023/01/30 12:48:31;;;;;;;30.00;6.53;;;;;;;;;;6179483;23;20016;-71
2023/01/30 12:51:09;;;;;;;28.02;5.35;;;;;;;;;;6204694;23;20020;-71
2023/01/30 12:53:35;;;;;;;45.53;8.15;;;;;;;;;;6204916;23;20059;-71
2023/01/30 12:56:16;;;;;;;28.13;4.72;;;;;;;;;;6232685;23;20091;-71
2023/01/30 12:58:51;;;;;;;35.92;5.40;;;;;;;;;;6203763;23;20654;-71
2023/01/30 13:01:26;;;;;;;31.52;5.25;;;;;;;;;;6205238;23;20017;-72
2023/01/30 13:03:58;;;;;;;42.10;7.03;;;;;;;;;;6204116;23;20022;-73
2023/01/30 13:06:34;;;;;;;43.05;6.55;;;;;;;;;;6232099;23;20016;-70
2023/01/30 13:09:18;;;;;;;46.90;6.45;;;;;;;;;;6232070;23;20018;-71
2023/01/30 13:11:48;;;;;;;49.30;7.35;;;;;;;;;;6180451;23;20080;-71
2023/01/30 13:14:38;;;;;;;50.38;6.90;;;;;;;;;;6230474;22;20020;-71
2023/01/30 13:17:18;;;;;;;32.67;5.57;;;;;;;;;;6186180;23;20051;-71
2023/01/30 13:19:57;;;;;;;30.27;5.50;;;;;;;;;;6232062;23;20047;-71
2023/01/30 13:22:23;;;;;;;36.67;6.32;;;;;;;;;;6231929;23;20052;-71
2023/01/30 13:24:52;;;;;;;39.10;5.43;;;;;;;;;;6204699;23;20091;-71
2023/01/30 13:27:21;;;;;;;42.28;6.07;;;;;;;;;;6230865;23;20070;-71
2023/01/30 13:29:48;;;;;;;30.92;5.85;;;;;;;;;;6205085;23;20022;-71
2023/01/30 13:32:16;;;;;;;42.17;6.93;;;;;;;;;;6204978;23;20082;-70
2023/01/30 13:34:45;;;;;;;27.00;5.50;;;;;;;;;;6204795;23;20169;-70
2023/01/30 13:37:11;;;;;;;37.28;5.97;;;;;;;;;;6205100;23;20024;-70
2023/01/30 13:39:41;;;;;;;31.92;5.07;;;;;;;;;;6231752;23;20046;-71
2023/01/30 13:42:25;;;;;;;30.08;5.65;;;;;;;;;;6201283;23;20020;-71
2023/01/30 13:44:51;;;;;;;34.87;6.90;;;;;;;;;;6203543;23;20051;-70
2023/01/30 13:47:21;;;;;;;52.33;8.73;;;;;;;;;;6236358;23;20042;-71
2023/01/30 13:49:56;;;;;;;43.17;7.28;;;;;;;;;;6208633;23;20012;-71
2023/01/30 13:52:22;;;;;;;38.35;5.90;;;;;;;;;;6225339;23;20024;-71
2023/01/30 13:54:48;;;;;;;29.73;5.80;;;;;;;;;;6249552;23;20023;-71
2023/01/30 13:57:27;;;;;;;42.13;7.07;;;;;;;;;;6208320;23;20070;-71
2023/01/30 14:00:02;;;;;;;43.17;8.05;;;;;;;;;;6202756;23;20031;-71
2023/01/30 14:02:28;;;;;;;42.15;6.32;;;;;;;;;;6205504;23;20749;-76
2023/01/30 14:04:55;;;;;;;50.55;7.30;;;;;;;;;;6232657;23;20050;-77
2023/01/30 14:07:25;;;;;;;42.95;7.05;;;;;;;;;;6208395;23;20020;-77
2023/01/30 14:10:02;;;;;;;31.13;6.10;;;;;;;;;;6234097;23;20008;-76
2023/01/30 14:12:33;;;;;;;53.60;8.10;;;;;;;;;;6206910;23;20027;-76
2023/01/30 14:15:04;;;;;;;45.33;7.30;;;;;;;;;;6233594;22;20031;-77
2023/01/30 14:17:31;;;;;;;30.38;6.32;;;;;;;;;;6184069;23;20022;-76
2023/01/30 14:19:59;;;;;;;44.63;7.85;;;;;;;;;;6234134;23;20019;-76
2023/01/30 14:22:28;;;;;;;42.22;7.30;;;;;;;;;;6234402;23;20575;-76
2023/01/30 14:25:12;;;;;;;50.03;7.28;;;;;;;;;;6229008;23;20447;-76
2023/01/30 14:27:39;;;;;;;34.53;7.50;;;;;;;;;;6210838;23;20016;-77
2023/01/30 14:30:23;;;;;;;37.67;6.88;;;;;;;;;;6212685;23;20135;-78
2023/01/30 14:32:54;;;;;;;40.22;6.88;;;;;;;;;;6207014;23;20095;-77
2023/01/30 14:35:21;;;;;;;43.35;7.75;;;;;;;;;;6232626;23;20793;-77
2023/01/30 14:37:49;;;;;;;42.45;6.53;;;;;;;;;;6203589;23;20035;-76
2023/01/30 14:40:21;;;;;;;47.83;8.15;;;;;;;;;;6176784;23;20016;-76
2023/01/30 14:43:06;;;;;;;40.97;6.45;;;;;;;;;;6201992;23;20024;-77
2023/01/30 14:45:41;;;;;;;43.75;9.13;;;;;;;;;;6176702;23;20016;-76
2023/01/30 14:48:27;;;;;;;41.25;6.88;;;;;;;;;;6201906;23;20020;-76